KCLL/CLL METAR and TAF weather

Enter ICAO airport designator
Station Type Date Time Source
KCLL METAR 2022/08/16 19:53 UTC NOAA

KCLL 161953Z 17009KT 10SM SCT075 37/18 A2992 RMK AO2 SLP127 T03720178


Station Type Date Time Source
KCLL Decoded METAR 2022/08/16 19:53 UTC NOAA

COLLEGE STN EASTERWOOD FIELD, TX, United States (KCLL) 30-35N 096-22W 96M
Aug 16, 2022 - 03:53 PM EDT / 2022.08.16 1953 UTC
Wind: from the S (170 degrees) at 10 MPH (9 KT):0
Visibility: 10 mile(s):0
Sky conditions: partly cloudy
Temperature: 99.0 F (37.2 C)
Heat index: 101.7 F (38.7 C):1
Dew Point: 64.0 F (17.8 C)
Relative Humidity: 32%
Pressure (altimeter): 29.92 in. Hg (1013 hPa)
ob: KCLL 161953Z 17009KT 10SM SCT075 37/18 A2992 RMK AO2 SLP127 T03720178
cycle: 20

Station Type Date Time Source
KCLL TAF 2022/08/16 18:22 UTC NOAA

TAF KCLL 161720Z 1618/1718 25007KT P6SM FEW035
FM161900 17007KT P6SM FEW060
FM170800 21005KT P6SM SCT025
FM171400 24009KT P6SM FEW060 SCT250

Example: see airport list